Pinsk, Belarus
Current Conditions -  °F | °C
As of 3:30 PM on Saturday 25 Oct 2014 (Local Time) from UMBB Reporting Station
Clear Clear  
Wind Chill: 34°   Ceiling: Unl
Heat Index: 41°   Visibility: 6mi
Dew Point: 14°   Wind: 13mph
Humidity: 33%   Direction: 140°SE
Pressure: 30.42"   Gusts: 20mph
Location:  52.12°N, 26.1°E
Report Text: UMBB 251330Z 14006G09MPS CAVOK 05/M10 Q1030 R11/CLRD// NOSIG
Loading
Personal Weather Stations






























Interactive Weather Map
Tropical Storm Tracking
New forecast layout! Learn more

10-Day Weather Forecast

Advertisements
Track Severe Weather on mobile